sensor_id;sensor_type;location;lat;lon;timestamp;temperature;humidity
13569;DHT22;6856;51.460;7.158;2023-02-24T00:00:52;9.90;68.80
13569;DHT22;6856;51.460;7.158;2023-02-24T00:03:26;9.70;68.00
13569;DHT22;6856;51.460;7.158;2023-02-24T00:06:00;9.80;68.10
13569;DHT22;6856;51.460;7.158;2023-02-24T00:08:37;9.70;68.00
13569;DHT22;6856;51.460;7.158;2023-02-24T00:11:14;9.70;68.10
13569;DHT22;6856;51.460;7.158;2023-02-24T00:13:50;9.80;68.10
13569;DHT22;6856;51.460;7.158;2023-02-24T00:16:25;9.70;67.90
13569;DHT22;6856;51.460;7.158;2023-02-24T00:19:00;9.60;67.70
13569;DHT22;6856;51.460;7.158;2023-02-24T00:21:34;9.60;68.50
13569;DHT22;6856;51.460;7.158;2023-02-24T00:24:08;9.60;67.60
13569;DHT22;6856;51.460;7.158;2023-02-24T00:26:43;9.60;67.60
13569;DHT22;6856;51.460;7.158;2023-02-24T00:29:19;9.60;67.40
13569;DHT22;6856;51.460;7.158;2023-02-24T00:31:56;9.60;67.50
13569;DHT22;6856;51.460;7.158;2023-02-24T00:34:34;9.60;67.40
13569;DHT22;6856;51.460;7.158;2023-02-24T00:37:08;9.60;67.40
13569;DHT22;6856;51.460;7.158;2023-02-24T00:39:43;9.80;67.40
13569;DHT22;6856;51.460;7.158;2023-02-24T00:42:16;9.50;67.20
13569;DHT22;6856;51.460;7.158;2023-02-24T00:44:50;9.50;67.10
13569;DHT22;6856;51.460;7.158;2023-02-24T00:47:27;9.50;67.10
13569;DHT22;6856;51.460;7.158;2023-02-24T00:50:01;9.50;67.00
13569;DHT22;6856;51.460;7.158;2023-02-24T00:52:36;9.50;67.00
13569;DHT22;6856;51.460;7.158;2023-02-24T00:55:10;9.50;66.90
13569;DHT22;6856;51.460;7.158;2023-02-24T00:57:46;9.50;66.80
13569;DHT22;6856;51.460;7.158;2023-02-24T01:00:21;9.40;66.80
13569;DHT22;6856;51.460;7.158;2023-02-24T01:02:57;9.40;66.90
13569;DHT22;6856;51.460;7.158;2023-02-24T01:05:35;9.70;67.10
13569;DHT22;6856;51.460;7.158;2023-02-24T01:08:09;9.40;67.10
13569;DHT22;6856;51.460;7.158;2023-02-24T01:10:44;9.40;67.00
13569;DHT22;6856;51.460;7.158;2023-02-24T01:13:41;9.50;67.10
13569;DHT22;6856;51.460;7.158;2023-02-24T01:16:14;9.40;66.80
13569;DHT22;6856;51.460;7.158;2023-02-24T01:18:51;9.30;66.70
13569;DHT22;6856;51.460;7.158;2023-02-24T01:21:26;9.30;66.70
13569;DHT22;6856;51.460;7.158;2023-02-24T01:24:00;9.20;66.60
13569;DHT22;6856;51.460;7.158;2023-02-24T01:26:34;9.20;66.70
13569;DHT22;6856;51.460;7.158;2023-02-24T01:29:07;9.10;66.60
13569;DHT22;6856;51.460;7.158;2023-02-24T01:31:42;9.10;66.70
13569;DHT22;6856;51.460;7.158;2023-02-24T01:34:20;9.10;66.80
13569;DHT22;6856;51.460;7.158;2023-02-24T01:36:54;9.10;66.90
13569;DHT22;6856;51.460;7.158;2023-02-24T01:39:28;9.10;67.10
13569;DHT22;6856;51.460;7.158;2023-02-24T01:42:04;9.00;67.40
13569;DHT22;6856;51.460;7.158;2023-02-24T01:45:10;9.00;67.20
13569;DHT22;6856;51.460;7.158;2023-02-24T01:47:47;9.00;67.20
13569;DHT22;6856;51.460;7.158;2023-02-24T01:50:25;9.30;67.30
13569;DHT22;6856;51.460;7.158;2023-02-24T01:53:01;9.00;67.10
13569;DHT22;6856;51.460;7.158;2023-02-24T01:55:41;8.90;67.10
13569;DHT22;6856;51.460;7.158;2023-02-24T01:58:23;8.90;67.10
13569;DHT22;6856;51.460;7.158;2023-02-24T02:01:01;8.90;67.10
13569;DHT22;6856;51.460;7.158;2023-02-24T02:03:41;8.90;67.00
13569;DHT22;6856;51.460;7.158;2023-02-24T02:06:19;8.80;67.00
13569;DHT22;6856;51.460;7.158;2023-02-24T02:08:53;8.80;66.90
13569;DHT22;6856;51.460;7.158;2023-02-24T02:11:27;8.80;67.00
13569;DHT22;6856;51.460;7.158;2023-02-24T02:14:01;8.80;66.80
13569;DHT22;6856;51.460;7.158;2023-02-24T02:16:47;8.80;67.00
13569;DHT22;6856;51.460;7.158;2023-02-24T02:23:11;8.70;66.90
13569;DHT22;6856;51.460;7.158;2023-02-24T02:26:21;8.70;66.80
13569;DHT22;6856;51.460;7.158;2023-02-24T02:29:35;8.60;66.70
13569;DHT22;6856;51.460;7.158;2023-02-24T02:33:09;8.60;66.70
13569;DHT22;6856;51.460;7.158;2023-02-24T02:36:12;8.60;66.60
13569;DHT22;6856;51.460;7.158;2023-02-24T02:38:59;8.60;66.50
13569;DHT22;6856;51.460;7.158;2023-02-24T02:41:50;8.80;66.60
13569;DHT22;6856;51.460;7.158;2023-02-24T02:44:36;8.50;66.50
13569;DHT22;6856;51.460;7.158;2023-02-24T02:47:17;8.50;66.50
13569;DHT22;6856;51.460;7.158;2023-02-24T02:50:00;8.50;66.60
13569;DHT22;6856;51.460;7.158;2023-02-24T02:52:48;8.40;66.60
13569;DHT22;6856;51.460;7.158;2023-02-24T02:55:32;8.60;66.80
13569;DHT22;6856;51.460;7.158;2023-02-24T02:58:14;8.40;66.70
13569;DHT22;6856;51.460;7.158;2023-02-24T03:00:52;8.40;66.70
13569;DHT22;6856;51.460;7.158;2023-02-24T03:03:35;8.40;66.70
13569;DHT22;6856;51.460;7.158;2023-02-24T03:06:16;8.40;66.60
13569;DHT22;6856;51.460;7.158;2023-02-24T03:08:58;8.30;66.60
13569;DHT22;6856;51.460;7.158;2023-02-24T03:11:42;8.30;66.60
13569;DHT22;6856;51.460;7.158;2023-02-24T03:14:23;8.30;66.60
13569;DHT22;6856;51.460;7.158;2023-02-24T03:17:02;8.30;66.60
13569;DHT22;6856;51.460;7.158;2023-02-24T03:19:40;8.30;66.70
13569;DHT22;6856;51.460;7.158;2023-02-24T03:22:20;8.30;66.70
13569;DHT22;6856;51.460;7.158;2023-02-24T03:25:02;8.30;66.80
13569;DHT22;6856;51.460;7.158;2023-02-24T03:27:42;8.20;66.60
13569;DHT22;6856;51.460;7.158;2023-02-24T03:30:24;8.20;66.70
13569;DHT22;6856;51.460;7.158;2023-02-24T03:33:08;8.20;66.60
13569;DHT22;6856;51.460;7.158;2023-02-24T03:35:50;8.20;66.50
13569;DHT22;6856;51.460;7.158;2023-02-24T03:38:26;8.20;66.50
13569;DHT22;6856;51.460;7.158;2023-02-24T03:41:03;8.30;66.70
13569;DHT22;6856;51.460;7.158;2023-02-24T03:43:44;8.10;66.60
13569;DHT22;6856;51.460;7.158;2023-02-24T03:46:21;8.10;66.60
13569;DHT22;6856;51.460;7.158;2023-02-24T03:48:58;8.10;66.40
13569;DHT22;6856;51.460;7.158;2023-02-24T03:51:37;8.10;66.40
13569;DHT22;6856;51.460;7.158;2023-02-24T03:54:25;8.10;67.20
13569;DHT22;6856;51.460;7.158;2023-02-24T03:57:23;8.10;66.50
13569;DHT22;6856;51.460;7.158;2023-02-24T04:00:07;8.10;66.60
13569;DHT22;6856;51.460;7.158;2023-02-24T04:02:59;8.00;66.50
13569;DHT22;6856;51.460;7.158;2023-02-24T04:05:46;8.00;66.40
13569;DHT22;6856;51.460;7.158;2023-02-24T04:08:30;8.00;66.30
13569;DHT22;6856;51.460;7.158;2023-02-24T04:11:17;8.00;66.30
13569;DHT22;6856;51.460;7.158;2023-02-24T04:14:03;8.00;66.20
13569;DHT22;6856;51.460;7.158;2023-02-24T04:16:44;8.00;66.10
13569;DHT22;6856;51.460;7.158;2023-02-24T04:19:23;8.00;66.10
13569;DHT22;6856;51.460;7.158;2023-02-24T04:22:02;7.90;66.00
13569;DHT22;6856;51.460;7.158;2023-02-24T04:24:38;7.90;65.90
13569;DHT22;6856;51.460;7.158;2023-02-24T04:27:16;7.90;66.00
13569;DHT22;6856;51.460;7.158;2023-02-24T04:29:55;7.90;66.00
13569;DHT22;6856;51.460;7.158;2023-02-24T04:32:36;8.20;66.10
13569;DHT22;6856;51.460;7.158;2023-02-24T04:35:15;7.80;65.90
13569;DHT22;6856;51.460;7.158;2023-02-24T04:37:54;7.80;66.00
13569;DHT22;6856;51.460;7.158;2023-02-24T04:40:28;7.80;66.00
13569;DHT22;6856;51.460;7.158;2023-02-24T04:43:02;7.80;66.10
13569;DHT22;6856;51.460;7.158;2023-02-24T04:45:39;7.80;66.20
13569;DHT22;6856;51.460;7.158;2023-02-24T04:48:13;7.80;66.10
13569;DHT22;6856;51.460;7.158;2023-02-24T04:50:47;7.80;66.10
13569;DHT22;6856;51.460;7.158;2023-02-24T04:53:26;7.80;66.00
13569;DHT22;6856;51.460;7.158;2023-02-24T04:56:02;7.80;66.00
13569;DHT22;6856;51.460;7.158;2023-02-24T04:58:40;7.80;66.00
13569;DHT22;6856;51.460;7.158;2023-02-24T05:01:17;7.80;65.90
13569;DHT22;6856;51.460;7.158;2023-02-24T05:03:51;7.80;65.80
13569;DHT22;6856;51.460;7.158;2023-02-24T05:06:25;7.80;65.80
13569;DHT22;6856;51.460;7.158;2023-02-24T05:08:59;7.80;65.80
13569;DHT22;6856;51.460;7.158;2023-02-24T05:11:42;7.80;65.80
13569;DHT22;6856;51.460;7.158;2023-02-24T05:14:20;7.70;65.70
13569;DHT22;6856;51.460;7.158;2023-02-24T05:16:55;7.80;65.60
13569;DHT22;6856;51.460;7.158;2023-02-24T05:19:31;7.70;65.50
13569;DHT22;6856;51.460;7.158;2023-02-24T05:22:22;8.00;65.60
13569;DHT22;6856;51.460;7.158;2023-02-24T05:24:56;7.70;65.40
13569;DHT22;6856;51.460;7.158;2023-02-24T05:27:30;7.70;65.50
13569;DHT22;6856;51.460;7.158;2023-02-24T05:30:06;7.60;65.50
13569;DHT22;6856;51.460;7.158;2023-02-24T05:32:42;7.60;65.70
13569;DHT22;6856;51.460;7.158;2023-02-24T05:35:17;7.70;65.70
13569;DHT22;6856;51.460;7.158;2023-02-24T05:37:51;7.60;65.80
13569;DHT22;6856;51.460;7.158;2023-02-24T05:40:25;7.60;65.70
13569;DHT22;6856;51.460;7.158;2023-02-24T05:42:59;7.60;65.90
13569;DHT22;6856;51.460;7.158;2023-02-24T05:45:35;7.60;65.80
13569;DHT22;6856;51.460;7.158;2023-02-24T05:48:16;7.70;65.90
13569;DHT22;6856;51.460;7.158;2023-02-24T05:50:51;7.60;65.60
13569;DHT22;6856;51.460;7.158;2023-02-24T05:53:26;7.60;65.50
13569;DHT22;6856;51.460;7.158;2023-02-24T05:56:00;7.60;65.40
13569;DHT22;6856;51.460;7.158;2023-02-24T05:58:37;7.60;66.10
13569;DHT22;6856;51.460;7.158;2023-02-24T06:01:11;7.60;65.30
13569;DHT22;6856;51.460;7.158;2023-02-24T06:03:48;7.60;65.40
13569;DHT22;6856;51.460;7.158;2023-02-24T06:06:26;7.60;65.40
13569;DHT22;6856;51.460;7.158;2023-02-24T06:08:59;7.60;65.30
13569;DHT22;6856;51.460;7.158;2023-02-24T06:11:39;7.60;65.30
13569;DHT22;6856;51.460;7.158;2023-02-24T06:14:16;7.60;65.30
13569;DHT22;6856;51.460;7.158;2023-02-24T06:16:50;7.60;65.30
13569;DHT22;6856;51.460;7.158;2023-02-24T06:19:25;7.60;65.20
13569;DHT22;6856;51.460;7.158;2023-02-24T06:22:03;7.60;65.00
13569;DHT22;6856;51.460;7.158;2023-02-24T06:24:41;7.60;64.80
13569;DHT22;6856;51.460;7.158;2023-02-24T06:27:17;7.70;64.80
13569;DHT22;6856;51.460;7.158;2023-02-24T06:29:53;7.60;64.70
13569;DHT22;6856;51.460;7.158;2023-02-24T06:32:28;7.60;64.50
13569;DHT22;6856;51.460;7.158;2023-02-24T06:35:04;7.50;64.40
13569;DHT22;6856;51.460;7.158;2023-02-24T06:37:38;7.50;64.30
13569;DHT22;6856;51.460;7.158;2023-02-24T06:40:13;7.50;65.00
13569;DHT22;6856;51.460;7.158;2023-02-24T06:42:49;7.50;64.20
13569;DHT22;6856;51.460;7.158;2023-02-24T06:45:26;7.50;64.20
13569;DHT22;6856;51.460;7.158;2023-02-24T06:48:01;7.40;64.10
13569;DHT22;6856;51.460;7.158;2023-02-24T06:50:37;7.40;64.10
13569;DHT22;6856;51.460;7.158;2023-02-24T06:53:12;7.40;64.10
13569;DHT22;6856;51.460;7.158;2023-02-24T06:55:49;7.40;64.20
13569;DHT22;6856;51.460;7.158;2023-02-24T06:58:23;7.40;64.30
13569;DHT22;6856;51.460;7.158;2023-02-24T07:00:57;7.40;64.40
13569;DHT22;6856;51.460;7.158;2023-02-24T07:03:33;7.50;64.50
13569;DHT22;6856;51.460;7.158;2023-02-24T07:06:13;7.40;64.30
13569;DHT22;6856;51.460;7.158;2023-02-24T07:08:56;7.40;64.50
13569;DHT22;6856;51.460;7.158;2023-02-24T07:11:31;7.70;64.80
13569;DHT22;6856;51.460;7.158;2023-02-24T07:14:06;7.40;64.80
13569;DHT22;6856;51.460;7.158;2023-02-24T07:16:42;7.40;64.90
13569;DHT22;6856;51.460;7.158;2023-02-24T07:19:16;7.40;64.90
13569;DHT22;6856;51.460;7.158;2023-02-24T07:21:54;7.40;64.90
13569;DHT22;6856;51.460;7.158;2023-02-24T07:24:33;7.40;64.90
13569;DHT22;6856;51.460;7.158;2023-02-24T07:27:11;7.40;64.90
13569;DHT22;6856;51.460;7.158;2023-02-24T07:29:53;7.40;64.90
13569;DHT22;6856;51.460;7.158;2023-02-24T07:32:27;7.40;64.90
13569;DHT22;6856;51.460;7.158;2023-02-24T07:35:01;7.40;64.80
13569;DHT22;6856;51.460;7.158;2023-02-24T07:37:37;7.40;64.70
13569;DHT22;6856;51.460;7.158;2023-02-24T07:40:13;7.40;64.50
13569;DHT22;6856;51.460;7.158;2023-02-24T07:42:48;7.40;64.60
13569;DHT22;6856;51.460;7.158;2023-02-24T07:45:22;7.40;64.40
13569;DHT22;6856;51.460;7.158;2023-02-24T07:47:56;7.40;64.40
13569;DHT22;6856;51.460;7.158;2023-02-24T07:50:32;7.60;64.50
13569;DHT22;6856;51.460;7.158;2023-02-24T07:53:07;7.40;64.40
13569;DHT22;6856;51.460;7.158;2023-02-24T07:55:41;7.50;64.60
13569;DHT22;6856;51.460;7.158;2023-02-24T07:58:15;7.40;64.40
13569;DHT22;6856;51.460;7.158;2023-02-24T08:00:49;7.70;64.50
13569;DHT22;6856;51.460;7.158;2023-02-24T08:03:30;7.40;64.20
13569;DHT22;6856;51.460;7.158;2023-02-24T08:06:07;7.40;64.10
13569;DHT22;6856;51.460;7.158;2023-02-24T08:08:48;7.40;64.10
13569;DHT22;6856;51.460;7.158;2023-02-24T08:11:42;7.40;63.90
13569;DHT22;6856;51.460;7.158;2023-02-24T08:14:18;7.40;63.90
13569;DHT22;6856;51.460;7.158;2023-02-24T08:16:55;7.40;63.80
13569;DHT22;6856;51.460;7.158;2023-02-24T08:19:32;7.40;63.70
13569;DHT22;6856;51.460;7.158;2023-02-24T08:22:10;7.40;63.70
13569;DHT22;6856;51.460;7.158;2023-02-24T08:24:58;7.40;63.60
13569;DHT22;6856;51.460;7.158;2023-02-24T08:27:37;7.40;63.40
13569;DHT22;6856;51.460;7.158;2023-02-24T08:30:12;7.40;63.40
13569;DHT22;6856;51.460;7.158;2023-02-24T08:32:55;7.40;63.50
13569;DHT22;6856;51.460;7.158;2023-02-24T08:35:32;7.40;63.40
13569;DHT22;6856;51.460;7.158;2023-02-24T08:38:09;7.40;63.40
13569;DHT22;6856;51.460;7.158;2023-02-24T08:40:49;7.40;63.20
13569;DHT22;6856;51.460;7.158;2023-02-24T08:43:28;7.40;63.10
13569;DHT22;6856;51.460;7.158;2023-02-24T08:46:14;7.50;63.20
13569;DHT22;6856;51.460;7.158;2023-02-24T08:48:52;7.40;62.80
13569;DHT22;6856;51.460;7.158;2023-02-24T08:51:30;7.40;62.80
13569;DHT22;6856;51.460;7.158;2023-02-24T08:54:09;7.50;63.50
13569;DHT22;6856;51.460;7.158;2023-02-24T08:56:48;7.60;62.70
13569;DHT22;6856;51.460;7.158;2023-02-24T08:59:27;7.50;62.70
13569;DHT22;6856;51.460;7.158;2023-02-24T09:02:12;7.50;62.80
13569;DHT22;6856;51.460;7.158;2023-02-24T09:05:00;7.50;62.90
13569;DHT22;6856;51.460;7.158;2023-02-24T09:07:45;7.50;63.10
13569;DHT22;6856;51.460;7.158;2023-02-24T09:10:25;7.70;63.20
13569;DHT22;6856;51.460;7.158;2023-02-24T09:13:01;7.50;63.20
13569;DHT22;6856;51.460;7.158;2023-02-24T09:15:39;7.50;63.30
13569;DHT22;6856;51.460;7.158;2023-02-24T09:18:15;7.50;63.50
13569;DHT22;6856;51.460;7.158;2023-02-24T09:20:49;7.50;63.60
13569;DHT22;6856;51.460;7.158;2023-02-24T09:23:46;7.50;63.60
13569;DHT22;6856;51.460;7.158;2023-02-24T09:26:21;7.50;63.60
13569;DHT22;6856;51.460;7.158;2023-02-24T09:28:56;7.50;63.60
13569;DHT22;6856;51.460;7.158;2023-02-24T09:31:30;7.60;63.60
13569;DHT22;6856;51.460;7.158;2023-02-24T09:34:26;7.50;63.40
13569;DHT22;6856;51.460;7.158;2023-02-24T09:37:01;7.50;63.50
13569;DHT22;6856;51.460;7.158;2023-02-24T09:39:36;7.50;63.60
13569;DHT22;6856;51.460;7.158;2023-02-24T09:42:26;7.80;63.60
13569;DHT22;6856;51.460;7.158;2023-02-24T09:45:21;7.60;63.70
13569;DHT22;6856;51.460;7.158;2023-02-24T09:48:09;7.60;63.60
13569;DHT22;6856;51.460;7.158;2023-02-24T09:51:05;7.70;63.60
13569;DHT22;6856;51.460;7.158;2023-02-24T09:53:41;7.60;63.50
13569;DHT22;6856;51.460;7.158;2023-02-24T09:56:28;7.60;63.30
13569;DHT22;6856;51.460;7.158;2023-02-24T09:59:12;7.80;63.40
13569;DHT22;6856;51.460;7.158;2023-02-24T10:02:11;7.80;63.30
13569;DHT22;6856;51.460;7.158;2023-02-24T10:05:03;7.70;63.10
13569;DHT22;6856;51.460;7.158;2023-02-24T10:07:45;7.70;63.10
13569;DHT22;6856;51.460;7.158;2023-02-24T10:10:25;7.70;63.20
13569;DHT22;6856;51.460;7.158;2023-02-24T10:13:12;7.70;63.10
13569;DHT22;6856;51.460;7.158;2023-02-24T10:16:03;7.70;63.00
13569;DHT22;6856;51.460;7.158;2023-02-24T10:18:45;7.70;63.00
13569;DHT22;6856;51.460;7.158;2023-02-24T10:21:36;7.70;62.70
13569;DHT22;6856;51.460;7.158;2023-02-24T10:24:36;7.70;62.90
13569;DHT22;6856;51.460;7.158;2023-02-24T10:27:22;7.60;62.80
13569;DHT22;6856;51.460;7.158;2023-02-24T10:30:06;7.70;62.80
13569;DHT22;6856;51.460;7.158;2023-02-24T10:32:54;7.70;62.70
13569;DHT22;6856;51.460;7.158;2023-02-24T10:35:33;7.70;62.80
13569;DHT22;6856;51.460;7.158;2023-02-24T10:38:07;7.70;62.70
13569;DHT22;6856;51.460;7.158;2023-02-24T10:40:47;7.70;62.90
13569;DHT22;6856;51.460;7.158;2023-02-24T10:43:27;7.80;62.90
13569;DHT22;6856;51.460;7.158;2023-02-24T10:46:05;7.60;62.70
13569;DHT22;6856;51.460;7.158;2023-02-24T10:48:51;7.60;62.80
13569;DHT22;6856;51.460;7.158;2023-02-24T10:51:37;7.60;62.80
13569;DHT22;6856;51.460;7.158;2023-02-24T10:54:13;7.70;63.00
13569;DHT22;6856;51.460;7.158;2023-02-24T10:57:05;7.60;63.10
13569;DHT22;6856;51.460;7.158;2023-02-24T10:59:51;7.60;63.30
13569;DHT22;6856;51.460;7.158;2023-02-24T11:02:47;7.90;63.60
13569;DHT22;6856;51.460;7.158;2023-02-24T11:05:40;7.60;63.50
13569;DHT22;6856;51.460;7.158;2023-02-24T11:08:39;7.60;63.60
13569;DHT22;6856;51.460;7.158;2023-02-24T11:11:32;7.60;63.60
13569;DHT22;6856;51.460;7.158;2023-02-24T11:14:27;7.60;63.70
13569;DHT22;6856;51.460;7.158;2023-02-24T11:17:20;7.50;63.70
13569;DHT22;6856;51.460;7.158;2023-02-24T11:20:00;7.50;63.80
13569;DHT22;6856;51.460;7.158;2023-02-24T11:22:43;7.50;63.80
13569;DHT22;6856;51.460;7.158;2023-02-24T11:25:32;7.40;63.70
13569;DHT22;6856;51.460;7.158;2023-02-24T11:28:19;7.40;64.00
13569;DHT22;6856;51.460;7.158;2023-02-24T11:31:16;7.40;64.30
13569;DHT22;6856;51.460;7.158;2023-02-24T11:34:06;7.40;64.50
13569;DHT22;6856;51.460;7.158;2023-02-24T11:36:49;7.30;64.60
13569;DHT22;6856;51.460;7.158;2023-02-24T11:39:46;7.30;64.80
13569;DHT22;6856;51.460;7.158;2023-02-24T11:42:35;7.30;64.90
13569;DHT22;6856;51.460;7.158;2023-02-24T11:45:18;7.30;65.00
13569;DHT22;6856;51.460;7.158;2023-02-24T11:48:04;7.30;65.10
13569;DHT22;6856;51.460;7.158;2023-02-24T11:50:49;7.30;65.00
13569;DHT22;6856;51.460;7.158;2023-02-24T11:53:31;7.20;65.10
13569;DHT22;6856;51.460;7.158;2023-02-24T11:56:13;7.20;65.30
13569;DHT22;6856;51.460;7.158;2023-02-24T11:58:59;7.20;65.60
13569;DHT22;6856;51.460;7.158;2023-02-24T12:01:39;7.40;65.80
13569;DHT22;6856;51.460;7.158;2023-02-24T12:04:22;7.10;65.80
13569;DHT22;6856;51.460;7.158;2023-02-24T12:07:06;7.10;65.80
13569;DHT22;6856;51.460;7.158;2023-02-24T12:09:49;7.10;65.90
13569;DHT22;6856;51.460;7.158;2023-02-24T12:12:49;7.10;66.00
13569;DHT22;6856;51.460;7.158;2023-02-24T12:15:34;7.10;66.10
13569;DHT22;6856;51.460;7.158;2023-02-24T12:18:16;7.10;66.10
13569;DHT22;6856;51.460;7.158;2023-02-24T12:21:01;7.10;66.30
13569;DHT22;6856;51.460;7.158;2023-02-24T12:23:41;7.10;66.40
13569;DHT22;6856;51.460;7.158;2023-02-24T12:26:18;7.00;66.40
13569;DHT22;6856;51.460;7.158;2023-02-24T12:29:15;7.00;66.40
13569;DHT22;6856;51.460;7.158;2023-02-24T12:32:09;7.00;67.30
13569;DHT22;6856;51.460;7.158;2023-02-24T12:35:02;7.10;66.80
13569;DHT22;6856;51.460;7.158;2023-02-24T12:38:03;7.00;66.90
13569;DHT22;6856;51.460;7.158;2023-02-24T12:41:12;7.00;67.00
13569;DHT22;6856;51.460;7.158;2023-02-24T12:44:01;7.00;66.90
13569;DHT22;6856;51.460;7.158;2023-02-24T12:46:43;7.00;67.00
13569;DHT22;6856;51.460;7.158;2023-02-24T12:49:39;7.00;67.00
13569;DHT22;6856;51.460;7.158;2023-02-24T12:52:32;7.00;67.10
13569;DHT22;6856;51.460;7.158;2023-02-24T12:55:18;7.00;67.10
13569;DHT22;6856;51.460;7.158;2023-02-24T12:58:01;7.00;67.20
13569;DHT22;6856;51.460;7.158;2023-02-24T13:00:51;7.00;67.30
13569;DHT22;6856;51.460;7.158;2023-02-24T13:03:55;6.90;67.30
13569;DHT22;6856;51.460;7.158;2023-02-24T13:06:55;7.00;67.50
13569;DHT22;6856;51.460;7.158;2023-02-24T13:09:42;7.00;67.40
13569;DHT22;6856;51.460;7.158;2023-02-24T13:12:26;7.00;67.40
13569;DHT22;6856;51.460;7.158;2023-02-24T13:15:15;6.90;67.20
13569;DHT22;6856;51.460;7.158;2023-02-24T13:17:54;6.90;67.30
13569;DHT22;6856;51.460;7.158;2023-02-24T13:20:31;6.90;67.20
13569;DHT22;6856;51.460;7.158;2023-02-24T13:23:19;6.90;67.40
13569;DHT22;6856;51.460;7.158;2023-02-24T13:25:54;6.80;67.40
13569;DHT22;6856;51.460;7.158;2023-02-24T13:28:30;6.80;67.40
13569;DHT22;6856;51.460;7.158;2023-02-24T13:31:08;6.80;67.70
13569;DHT22;6856;51.460;7.158;2023-02-24T13:33:44;6.80;67.80
13569;DHT22;6856;51.460;7.158;2023-02-24T13:36:21;6.80;67.90
13569;DHT22;6856;51.460;7.158;2023-02-24T13:39:06;6.80;68.10
13569;DHT22;6856;51.460;7.158;2023-02-24T13:42:03;6.80;68.20
13569;DHT22;6856;51.460;7.158;2023-02-24T13:44:47;6.90;68.40
13569;DHT22;6856;51.460;7.158;2023-02-24T13:51:04;6.80;68.50
13569;DHT22;6856;51.460;7.158;2023-02-24T13:54:02;6.80;68.40
13569;DHT22;6856;51.460;7.158;2023-02-24T13:56:53;6.80;68.50
13569;DHT22;6856;51.460;7.158;2023-02-24T13:59:41;6.80;68.60
13569;DHT22;6856;51.460;7.158;2023-02-24T14:02:29;6.80;68.80
13569;DHT22;6856;51.460;7.158;2023-02-24T14:05:09;6.90;68.90
13569;DHT22;6856;51.460;7.158;2023-02-24T14:07:53;6.90;69.00
13569;DHT22;6856;51.460;7.158;2023-02-24T14:10:31;6.90;69.10
13569;DHT22;6856;51.460;7.158;2023-02-24T14:13:22;6.90;69.10
13569;DHT22;6856;51.460;7.158;2023-02-24T14:16:00;6.90;69.30
13569;DHT22;6856;51.460;7.158;2023-02-24T14:18:39;7.00;70.00
13569;DHT22;6856;51.460;7.158;2023-02-24T14:21:19;7.20;69.40
13569;DHT22;6856;51.460;7.158;2023-02-24T14:23:56;7.00;69.40
13569;DHT22;6856;51.460;7.158;2023-02-24T14:26:36;7.00;69.40
13569;DHT22;6856;51.460;7.158;2023-02-24T14:29:18;7.00;69.50
13569;DHT22;6856;51.460;7.158;2023-02-24T14:31:55;7.10;69.50
13569;DHT22;6856;51.460;7.158;2023-02-24T14:34:30;7.10;69.50
13569;DHT22;6856;51.460;7.158;2023-02-24T14:37:06;7.40;69.80
13569;DHT22;6856;51.460;7.158;2023-02-24T14:39:51;7.10;69.70
13569;DHT22;6856;51.460;7.158;2023-02-24T14:42:27;7.10;69.80
13569;DHT22;6856;51.460;7.158;2023-02-24T14:45:00;7.10;69.70
13569;DHT22;6856;51.460;7.158;2023-02-24T14:47:34;7.10;69.90
13569;DHT22;6856;51.460;7.158;2023-02-24T14:50:15;7.20;70.00
13569;DHT22;6856;51.460;7.158;2023-02-24T14:52:53;7.20;70.00
13569;DHT22;6856;51.460;7.158;2023-02-24T14:55:34;7.20;70.10
13569;DHT22;6856;51.460;7.158;2023-02-24T14:58:14;7.20;70.80
13569;DHT22;6856;51.460;7.158;2023-02-24T15:00:55;7.20;70.20
13569;DHT22;6856;51.460;7.158;2023-02-24T15:03:36;7.20;70.30
13569;DHT22;6856;51.460;7.158;2023-02-24T15:06:22;7.30;70.40
13569;DHT22;6856;51.460;7.158;2023-02-24T15:09:00;7.30;70.50
13569;DHT22;6856;51.460;7.158;2023-02-24T15:11:38;7.30;70.50
13569;DHT22;6856;51.460;7.158;2023-02-24T15:14:20;7.40;70.60
13569;DHT22;6856;51.460;7.158;2023-02-24T15:16:59;7.70;70.90
13569;DHT22;6856;51.460;7.158;2023-02-24T15:19:37;7.40;70.60
13569;DHT22;6856;51.460;7.158;2023-02-24T15:22:20;7.40;70.60
13569;DHT22;6856;51.460;7.158;2023-02-24T15:25:15;7.50;70.80
13569;DHT22;6856;51.460;7.158;2023-02-24T15:28:00;7.50;70.90
13569;DHT22;6856;51.460;7.158;2023-02-24T15:30:56;7.50;70.90
13569;DHT22;6856;51.460;7.158;2023-02-24T15:33:36;7.50;71.00
13569;DHT22;6856;51.460;7.158;2023-02-24T15:36:16;7.60;71.00
13569;DHT22;6856;51.460;7.158;2023-02-24T15:38:55;7.60;71.10
13569;DHT22;6856;51.460;7.158;2023-02-24T15:41:39;7.60;71.10
13569;DHT22;6856;51.460;7.158;2023-02-24T15:44:24;7.60;71.30
13569;DHT22;6856;51.460;7.158;2023-02-24T15:47:19;7.70;71.40
13569;DHT22;6856;51.460;7.158;2023-02-24T15:49:55;7.80;71.50
13569;DHT22;6856;51.460;7.158;2023-02-24T15:52:28;7.80;71.30
13569;DHT22;6856;51.460;7.158;2023-02-24T15:55:03;7.80;71.30
13569;DHT22;6856;51.460;7.158;2023-02-24T15:57:38;7.80;71.30
13569;DHT22;6856;51.460;7.158;2023-02-24T16:00:14;7.90;71.40
13569;DHT22;6856;51.460;7.158;2023-02-24T16:02:54;7.90;71.50
13569;DHT22;6856;51.460;7.158;2023-02-24T16:05:28;8.00;71.50
13569;DHT22;6856;51.460;7.158;2023-02-24T16:08:02;8.00;71.40
13569;DHT22;6856;51.460;7.158;2023-02-24T16:10:36;8.00;71.40
13569;DHT22;6856;51.460;7.158;2023-02-24T16:13:16;7.70;70.80
13569;DHT22;6856;51.460;7.158;2023-02-24T16:15:52;8.00;71.50
13569;DHT22;6856;51.460;7.158;2023-02-24T16:18:29;8.10;71.40
13569;DHT22;6856;51.460;7.158;2023-02-24T16:21:02;8.10;71.30
13569;DHT22;6856;51.460;7.158;2023-02-24T16:23:36;8.10;71.30
13569;DHT22;6856;51.460;7.158;2023-02-24T16:26:14;8.40;71.40
13569;DHT22;6856;51.460;7.158;2023-02-24T16:28:52;8.10;71.30
13569;DHT22;6856;51.460;7.158;2023-02-24T16:31:27;8.10;71.20
13569;DHT22;6856;51.460;7.158;2023-02-24T16:34:03;8.10;71.10
13569;DHT22;6856;51.460;7.158;2023-02-24T16:36:37;8.10;71.10
13569;DHT22;6856;51.460;7.158;2023-02-24T16:39:12;8.10;71.10
13569;DHT22;6856;51.460;7.158;2023-02-24T16:41:46;8.10;71.20
13569;DHT22;6856;51.460;7.158;2023-02-24T16:44:19;8.10;71.10
13569;DHT22;6856;51.460;7.158;2023-02-24T16:46:53;8.20;71.10
13569;DHT22;6856;51.460;7.158;2023-02-24T16:49:29;8.10;71.20
13569;DHT22;6856;51.460;7.158;2023-02-24T16:52:02;8.20;71.30
13569;DHT22;6856;51.460;7.158;2023-02-24T16:54:36;8.20;71.30
13569;DHT22;6856;51.460;7.158;2023-02-24T16:57:10;8.50;71.50
13569;DHT22;6856;51.460;7.158;2023-02-24T16:59:44;8.20;71.30
13569;DHT22;6856;51.460;7.158;2023-02-24T17:02:21;8.30;71.40
13569;DHT22;6856;51.460;7.158;2023-02-24T17:04:59;8.30;71.50
13569;DHT22;6856;51.460;7.158;2023-02-24T17:07:33;8.30;71.50
13569;DHT22;6856;51.460;7.158;2023-02-24T17:10:10;8.30;71.40
13569;DHT22;6856;51.460;7.158;2023-02-24T17:12:44;8.30;71.40
13569;DHT22;6856;51.460;7.158;2023-02-24T17:15:21;8.30;71.40
13569;DHT22;6856;51.460;7.158;2023-02-24T17:17:56;8.00;71.20
13569;DHT22;6856;51.460;7.158;2023-02-24T17:20:32;8.30;71.30
13569;DHT22;6856;51.460;7.158;2023-02-24T17:23:08;8.40;71.40
13569;DHT22;6856;51.460;7.158;2023-02-24T17:25:44;8.40;71.30
13569;DHT22;6856;51.460;7.158;2023-02-24T17:28:21;8.40;71.40
13569;DHT22;6856;51.460;7.158;2023-02-24T17:30:55;8.40;71.20
13569;DHT22;6856;51.460;7.158;2023-02-24T17:33:30;8.70;71.30
13569;DHT22;6856;51.460;7.158;2023-02-24T17:36:06;8.40;71.10